createdAt,value
2024-02-23T00:01:58.846Z,8.46
2024-02-23T00:04:31.105Z,8.45
2024-02-23T00:07:04.574Z,8.45
2024-02-23T00:09:36.925Z,8.44
2024-02-23T00:12:10.885Z,8.43
2024-02-23T00:14:43.189Z,8.41
2024-02-23T00:17:15.408Z,8.39
2024-02-23T00:19:50.376Z,8.39
2024-02-23T00:22:22.601Z,8.36
2024-02-23T00:24:54.737Z,8.35
2024-02-23T00:27:28.537Z,8.35
2024-02-23T00:30:00.667Z,8.35
2024-02-23T00:32:33.017Z,8.34
2024-02-23T00:35:05.573Z,8.33
2024-02-23T00:37:37.623Z,8.33
2024-02-23T00:40:11.979Z,8.33
2024-02-23T00:42:44.165Z,8.31
2024-02-23T00:45:16.306Z,8.30
2024-02-23T00:47:49.299Z,8.30
2024-02-23T00:50:22.164Z,8.28
2024-02-23T00:52:54.605Z,8.27
2024-02-23T00:55:28.022Z,8.25
2024-02-23T00:58:00.559Z,8.23
2024-02-23T01:00:33.600Z,8.21
2024-02-23T01:03:06.433Z,8.19
2024-02-23T01:05:39.624Z,8.17
2024-02-23T01:08:12.124Z,8.15
2024-02-23T01:10:44.324Z,8.13
2024-02-23T01:13:16.380Z,8.12
2024-02-23T01:15:48.810Z,8.09
2024-02-23T01:18:20.927Z,8.05
2024-02-23T01:20:53.133Z,8.02
2024-02-23T01:23:25.717Z,8.02
2024-02-23T01:26:00.085Z,8.00
2024-02-23T01:28:32.310Z,7.99
2024-02-23T01:31:05.454Z,7.99
2024-02-23T01:33:37.869Z,7.99
2024-02-23T01:36:11.220Z,8.00
2024-02-23T01:38:44.195Z,8.02
2024-02-23T01:41:16.408Z,8.04
2024-02-23T01:43:48.639Z,8.05
2024-02-23T01:46:21.703Z,8.06
2024-02-23T01:48:53.931Z,8.05
2024-02-23T01:51:26.699Z,8.06
2024-02-23T01:53:59.439Z,8.06
2024-02-23T01:56:32.224Z,8.07
2024-02-23T01:59:06.862Z,8.08
2024-02-23T02:01:39.088Z,8.09
2024-02-23T02:04:11.523Z,8.08
2024-02-23T02:06:44.207Z,8.09
2024-02-23T02:09:16.438Z,8.12
2024-02-23T02:11:52.520Z,8.13
2024-02-23T02:14:24.937Z,8.15
2024-02-23T02:16:57.141Z,8.16
2024-02-23T02:19:29.422Z,8.19
2024-02-23T02:22:01.680Z,8.18
2024-02-23T02:24:34.490Z,8.19
2024-02-23T02:27:07.834Z,8.18
2024-02-23T02:29:40.396Z,8.17
2024-02-23T02:32:12.462Z,8.15
2024-02-23T02:34:44.814Z,8.13
2024-02-23T02:37:17.084Z,8.08
2024-02-23T02:39:49.235Z,8.05
2024-02-23T02:42:21.694Z,8.04
2024-02-23T02:44:53.792Z,8.00
2024-02-23T02:47:26.016Z,7.97
2024-02-23T02:49:58.350Z,7.96
2024-02-23T02:52:30.493Z,7.93
2024-02-23T02:55:02.837Z,7.91
2024-02-23T02:57:34.944Z,7.89
2024-02-23T03:00:12.174Z,7.86
2024-02-23T03:02:44.313Z,7.84
2024-02-23T03:05:16.670Z,7.83
2024-02-23T03:07:49.173Z,7.81
2024-02-23T03:10:21.226Z,7.78
2024-02-23T03:12:53.553Z,7.76
2024-02-23T03:15:25.711Z,7.74
2024-02-23T03:17:59.530Z,7.70
2024-02-23T03:20:31.716Z,7.67
2024-02-23T03:23:04.884Z,7.64
2024-02-23T03:25:37.148Z,7.61
2024-02-23T03:28:09.880Z,7.59
2024-02-23T03:30:42.002Z,7.57
2024-02-23T03:33:14.213Z,7.54
2024-02-23T03:35:46.695Z,7.52
2024-02-23T03:38:18.968Z,7.49
2024-02-23T03:40:51.294Z,7.49
2024-02-23T03:43:23.872Z,7.50
2024-02-23T03:45:56.031Z,7.48
2024-02-23T03:48:28.488Z,7.47
2024-02-23T03:51:00.717Z,7.46
2024-02-23T03:53:32.900Z,7.47
2024-02-23T03:56:05.243Z,7.50
2024-02-23T03:58:37.484Z,7.48
2024-02-23T04:01:09.852Z,7.46
2024-02-23T04:03:42.186Z,7.42
2024-02-23T04:06:14.470Z,7.39
2024-02-23T04:08:48.961Z,7.37
2024-02-23T04:11:22.608Z,7.36
2024-02-23T04:13:54.909Z,7.33
2024-02-23T04:16:28.743Z,7.34
2024-02-23T04:19:01.497Z,7.35
2024-02-23T04:21:33.809Z,7.35
2024-02-23T04:24:06.089Z,7.34
2024-02-23T04:26:38.462Z,7.34
2024-02-23T04:29:10.886Z,7.37
2024-02-23T04:31:42.908Z,7.36
2024-02-23T04:34:17.359Z,7.37
2024-02-23T04:36:49.424Z,7.38
2024-02-23T04:39:21.731Z,7.37
2024-02-23T04:41:55.120Z,7.35
2024-02-23T04:44:27.600Z,7.34
2024-02-23T04:46:59.742Z,7.34
2024-02-23T04:49:31.940Z,7.34
2024-02-23T04:52:04.071Z,7.34
2024-02-23T04:54:36.150Z,7.34
2024-02-23T04:57:08.501Z,7.32
2024-02-23T04:59:40.667Z,7.32
2024-02-23T05:02:12.942Z,7.31
2024-02-23T05:04:45.405Z,7.30
2024-02-23T05:07:17.538Z,7.32
2024-02-23T05:09:49.773Z,7.30
2024-02-23T05:12:21.974Z,7.30
2024-02-23T05:14:54.594Z,7.30
2024-02-23T05:17:26.803Z,7.30
2024-02-23T05:19:59.089Z,7.30
2024-02-23T05:22:31.238Z,7.30
2024-02-23T05:25:04.787Z,7.29
2024-02-23T05:27:37.406Z,7.29
2024-02-23T05:30:11.813Z,7.29
2024-02-23T05:32:44.293Z,7.30
2024-02-23T05:35:16.874Z,7.33
2024-02-23T05:37:49.150Z,7.34
2024-02-23T05:40:21.792Z,7.36
2024-02-23T05:42:53.974Z,7.36
2024-02-23T05:45:26.111Z,7.37
2024-02-23T05:47:58.386Z,7.39
2024-02-23T05:50:30.595Z,7.39
2024-02-23T05:53:02.780Z,7.40
2024-02-23T05:55:35.019Z,7.41
2024-02-23T05:58:07.347Z,7.41
2024-02-23T06:00:40.129Z,7.40
2024-02-23T06:03:12.313Z,7.40
2024-02-23T06:05:44.668Z,7.40
2024-02-23T06:08:17.029Z,7.38
2024-02-23T06:10:49.336Z,7.40
2024-02-23T06:13:21.676Z,7.39
2024-02-23T06:15:55.076Z,7.39
2024-02-23T06:18:27.184Z,7.39
2024-02-23T06:20:59.405Z,7.41
2024-02-23T06:23:31.929Z,7.41
2024-02-23T06:26:04.286Z,7.41
2024-02-23T06:28:38.358Z,7.40
2024-02-23T06:31:11.287Z,7.41
2024-02-23T06:33:43.613Z,7.42
2024-02-23T06:36:15.829Z,7.45
2024-02-23T06:38:48.129Z,7.47
2024-02-23T06:41:20.463Z,7.48
2024-02-23T06:43:53.570Z,7.51
2024-02-23T06:46:25.699Z,7.50
2024-02-23T06:48:58.400Z,7.51
2024-02-23T06:51:31.107Z,7.50
2024-02-23T06:54:04.968Z,7.53
2024-02-23T06:56:37.678Z,7.58
2024-02-23T06:59:09.793Z,7.61
2024-02-23T07:01:52.155Z,7.64
2024-02-23T07:04:24.725Z,7.65
2024-02-23T07:06:57.390Z,7.66
2024-02-23T07:09:29.719Z,7.67
2024-02-23T07:12:02.338Z,7.69
2024-02-23T07:14:34.721Z,7.71
2024-02-23T07:17:07.124Z,7.73
2024-02-23T07:19:39.399Z,7.74
2024-02-23T07:22:11.625Z,7.76
2024-02-23T07:24:45.122Z,7.80
2024-02-23T07:27:17.286Z,7.82
2024-02-23T07:29:49.458Z,7.84
2024-02-23T07:32:21.834Z,7.85
2024-02-23T07:34:54.614Z,7.88
2024-02-23T07:37:28.167Z,7.89
2024-02-23T07:40:00.535Z,7.90
2024-02-23T07:42:32.883Z,7.91
2024-02-23T07:45:05.541Z,7.90
2024-02-23T07:47:37.901Z,7.92
2024-02-23T07:50:11.409Z,7.92
2024-02-23T07:52:43.868Z,7.93
2024-02-23T07:55:17.521Z,7.95
2024-02-23T07:57:49.913Z,7.97
2024-02-23T08:00:24.462Z,8.00
2024-02-23T08:02:58.130Z,8.00
2024-02-23T08:05:30.726Z,8.00
2024-02-23T08:08:03.076Z,8.04
2024-02-23T08:10:35.380Z,8.06
2024-02-23T08:13:07.997Z,8.08
2024-02-23T08:15:40.253Z,8.10
2024-02-23T08:18:12.798Z,8.13
2024-02-23T08:20:45.069Z,8.15
2024-02-23T08:23:17.321Z,8.18
2024-02-23T08:25:49.543Z,8.20
2024-02-23T08:28:21.890Z,8.23
2024-02-23T08:30:54.431Z,8.26
2024-02-23T08:33:26.593Z,8.28
2024-02-23T08:35:58.931Z,8.33
2024-02-23T08:38:31.559Z,8.36
2024-02-23T08:41:04.826Z,8.42
2024-02-23T08:43:37.361Z,8.47
2024-02-23T08:46:10.635Z,8.54
2024-02-23T08:48:43.398Z,8.62
2024-02-23T08:51:16.058Z,8.70
2024-02-23T08:53:48.258Z,8.80
2024-02-23T08:56:20.515Z,8.89
2024-02-23T08:58:52.882Z,9.01
2024-02-23T09:01:25.240Z,9.09
2024-02-23T09:03:57.627Z,9.18
2024-02-23T09:06:30.255Z,9.25
2024-02-23T09:09:02.813Z,9.31
2024-02-23T09:11:35.235Z,9.36
2024-02-23T09:14:07.776Z,9.41
2024-02-23T09:16:40.054Z,9.44
2024-02-23T09:19:12.449Z,9.46
2024-02-23T09:21:44.658Z,9.44
2024-02-23T09:24:17.360Z,9.44
2024-02-23T09:26:51.701Z,9.44
2024-02-23T09:29:23.984Z,9.47
2024-02-23T09:31:56.492Z,9.48
2024-02-23T09:34:28.836Z,9.48
2024-02-23T09:37:00.999Z,9.49
2024-02-23T09:39:33.148Z,9.48
2024-02-23T09:42:09.265Z,9.48
2024-02-23T09:44:39.846Z,9.48
2024-02-23T09:47:13.250Z,9.48
2024-02-23T09:49:46.535Z,9.50
2024-02-23T09:52:19.739Z,9.54
2024-02-23T09:54:52.281Z,9.56
2024-02-23T09:57:25.509Z,9.60
2024-02-23T09:59:58.646Z,9.62
2024-02-23T10:02:32.963Z,9.62
2024-02-23T10:05:06.063Z,9.63
2024-02-23T10:07:38.784Z,9.63
2024-02-23T10:10:13.187Z,9.61
2024-02-23T10:12:46.126Z,9.59
2024-02-23T10:15:19.052Z,9.58
2024-02-23T10:17:51.346Z,9.54
2024-02-23T10:20:23.741Z,9.51
2024-02-23T10:22:56.651Z,9.49
2024-02-23T10:25:28.716Z,9.47
2024-02-23T10:28:01.317Z,9.45
2024-02-23T10:30:33.555Z,9.44
2024-02-23T10:33:07.684Z,9.44
2024-02-23T10:35:43.322Z,9.45
2024-02-23T10:38:19.542Z,9.46
2024-02-23T10:40:53.032Z,9.46
2024-02-23T10:43:32.413Z,9.44
2024-02-23T10:46:09.254Z,9.41
2024-02-23T10:48:43.347Z,9.40
2024-02-23T10:51:20.724Z,9.41
2024-02-23T10:53:57.392Z,9.39
2024-02-23T10:56:30.035Z,9.38
2024-02-23T10:59:02.609Z,9.39
2024-02-23T11:01:37.536Z,9.37
2024-02-23T11:04:12.411Z,9.36
2024-02-23T11:06:51.187Z,9.37
2024-02-23T11:09:27.321Z,9.38
2024-02-23T11:12:00.977Z,9.40
2024-02-23T11:14:38.115Z,9.41
2024-02-23T11:17:20.205Z,9.41
2024-02-23T11:19:56.705Z,9.41
2024-02-23T11:22:37.688Z,9.40
2024-02-23T11:25:12.433Z,9.41
2024-02-23T11:27:45.007Z,9.43
2024-02-23T11:30:21.627Z,9.43
2024-02-23T11:33:01.221Z,9.43
2024-02-23T11:35:33.756Z,9.43
2024-02-23T11:38:08.066Z,9.40
2024-02-23T11:40:41.052Z,9.38
2024-02-23T11:43:14.879Z,9.40
2024-02-23T11:45:49.315Z,9.34
2024-02-23T11:48:23.924Z,9.34
2024-02-23T11:50:57.994Z,9.36
2024-02-23T11:53:31.404Z,9.36
2024-02-23T11:56:04.232Z,9.36
2024-02-23T11:58:36.759Z,9.39
2024-02-23T12:01:09.086Z,9.41
2024-02-23T12:03:42.024Z,9.42
2024-02-23T12:06:16.745Z,9.44
2024-02-23T12:08:49.836Z,9.46
2024-02-23T12:11:22.266Z,9.50
2024-02-23T12:13:55.050Z,9.53
2024-02-23T12:16:28.087Z,9.54
2024-02-23T12:19:03.377Z,9.60
2024-02-23T12:21:38.580Z,9.64
2024-02-23T12:24:11.601Z,9.74
2024-02-23T12:26:43.767Z,9.81
2024-02-23T12:29:16.095Z,9.87
2024-02-23T12:31:48.423Z,9.90
2024-02-23T12:34:22.303Z,9.91
2024-02-23T12:36:54.483Z,9.92
2024-02-23T12:39:27.898Z,9.89
2024-02-23T12:42:00.202Z,9.87
2024-02-23T12:44:32.540Z,9.87
2024-02-23T12:47:05.138Z,9.87
2024-02-23T12:49:37.494Z,9.86
2024-02-23T12:52:10.078Z,9.86
2024-02-23T12:54:43.271Z,9.89
2024-02-23T12:57:15.589Z,9.90
2024-02-23T12:59:47.602Z,9.94
2024-02-23T13:02:20.308Z,9.96
2024-02-23T13:04:52.508Z,9.96
2024-02-23T13:07:24.579Z,9.97
2024-02-23T13:09:56.761Z,9.98
2024-02-23T13:12:29.089Z,10.02
2024-02-23T13:15:01.528Z,10.07
2024-02-23T13:17:33.983Z,10.09
2024-02-23T13:20:11.682Z,10.14
2024-02-23T13:22:44.448Z,10.16
2024-02-23T13:25:16.608Z,10.14
2024-02-23T13:27:48.713Z,10.10
2024-02-23T13:30:21.244Z,10.05
2024-02-23T13:32:54.483Z,10.07
2024-02-23T13:35:27.182Z,10.09
2024-02-23T13:37:59.420Z,10.07
2024-02-23T13:40:32.904Z,10.06
2024-02-23T13:43:05.341Z,10.07
2024-02-23T13:45:53.161Z,10.08
2024-02-23T13:48:25.511Z,10.10
2024-02-23T13:50:57.948Z,10.10
2024-02-23T13:53:30.275Z,10.08
2024-02-23T13:56:02.990Z,10.08
2024-02-23T13:58:35.306Z,10.09
2024-02-23T14:01:07.687Z,10.13
2024-02-23T14:03:40.217Z,10.10
2024-02-23T14:06:12.665Z,10.06
2024-02-23T14:08:45.568Z,10.04
2024-02-23T14:11:19.386Z,9.97
2024-02-23T14:13:52.215Z,9.93
2024-02-23T14:16:25.696Z,9.90
2024-02-23T14:18:57.979Z,9.88
2024-02-23T14:21:30.656Z,9.90
2024-02-23T14:24:03.019Z,9.94
2024-02-23T14:26:35.603Z,9.93
2024-02-23T14:29:07.866Z,9.91
2024-02-23T14:31:39.927Z,9.89
2024-02-23T14:34:12.176Z,9.85
2024-02-23T14:36:45.146Z,9.84
2024-02-23T14:39:17.391Z,9.87
2024-02-23T14:41:49.632Z,9.90
2024-02-23T14:44:22.447Z,9.86
2024-02-23T14:46:55.076Z,9.84
2024-02-23T14:49:27.504Z,9.81
2024-02-23T14:51:59.856Z,9.76
2024-02-23T14:54:32.037Z,9.73
2024-02-23T14:57:04.990Z,9.72
2024-02-23T14:59:42.737Z,9.68
2024-02-23T15:02:21.021Z,9.62
2024-02-23T15:04:53.393Z,9.59
2024-02-23T15:07:25.822Z,9.53
2024-02-23T15:09:58.066Z,9.51
2024-02-23T15:12:30.593Z,9.48
2024-02-23T15:15:04.818Z,9.43
2024-02-23T15:17:37.289Z,9.38
2024-02-23T15:20:12.395Z,9.33
2024-02-23T15:22:47.036Z,9.30
2024-02-23T15:25:19.574Z,9.28
2024-02-23T15:27:53.950Z,9.26
2024-02-23T15:30:26.817Z,9.26
2024-02-23T15:32:59.239Z,9.26
2024-02-23T15:35:31.483Z,9.24
2024-02-23T15:38:03.663Z,9.20
2024-02-23T15:40:35.801Z,9.13
2024-02-23T15:43:08.311Z,9.08
2024-02-23T15:45:40.436Z,9.01
2024-02-23T15:48:14.752Z,8.96
2024-02-23T15:51:06.452Z,8.93
2024-02-23T15:53:39.844Z,8.86
2024-02-23T15:56:12.561Z,8.80
2024-02-23T15:58:44.769Z,8.75
2024-02-23T16:01:17.078Z,8.76
2024-02-23T16:03:49.386Z,8.75
2024-02-23T16:06:21.772Z,8.74
2024-02-23T16:08:53.890Z,8.68
2024-02-23T16:11:26.203Z,8.66
2024-02-23T16:13:58.623Z,8.67
2024-02-23T16:16:30.986Z,8.65
2024-02-23T16:19:04.455Z,8.60
2024-02-23T16:21:38.802Z,8.55
2024-02-23T16:24:11.335Z,8.54
2024-02-23T16:26:43.532Z,8.54
2024-02-23T16:29:15.979Z,8.51
2024-02-23T16:31:48.267Z,8.52
2024-02-23T16:34:20.304Z,8.51
2024-02-23T16:36:52.416Z,8.51
2024-02-23T16:39:24.423Z,8.49
2024-02-23T16:41:56.781Z,8.48
2024-02-23T16:44:28.949Z,8.46
2024-02-23T16:47:01.139Z,8.43
2024-02-23T16:49:33.594Z,8.44
2024-02-23T16:52:06.242Z,8.42
2024-02-23T16:54:38.594Z,8.35
2024-02-23T16:57:11.575Z,8.29
2024-02-23T16:59:43.789Z,8.27
2024-02-23T17:02:16.047Z,8.30
2024-02-23T17:04:48.233Z,8.30
2024-02-23T17:07:20.793Z,8.29
2024-02-23T17:09:52.943Z,8.28
2024-02-23T17:12:25.714Z,8.24
2024-02-23T17:14:59.659Z,8.20
2024-02-23T17:17:31.894Z,8.21
2024-02-23T17:20:05.471Z,8.23
2024-02-23T17:22:38.099Z,8.24
2024-02-23T17:25:11.020Z,8.23
2024-02-23T17:27:43.248Z,8.22
2024-02-23T17:30:16.183Z,8.22
2024-02-23T17:32:48.627Z,8.20
2024-02-23T17:35:21.093Z,8.19
2024-02-23T17:37:53.352Z,8.15
2024-02-23T17:40:25.586Z,8.14
2024-02-23T17:42:58.083Z,8.14
2024-02-23T17:45:30.270Z,8.14
2024-02-23T17:48:02.925Z,8.12
2024-02-23T17:50:35.204Z,8.10
2024-02-23T17:53:07.686Z,8.09
2024-02-23T17:55:39.874Z,8.09
2024-02-23T17:58:19.671Z,8.08
2024-02-23T18:00:53.254Z,8.08
2024-02-23T18:03:25.500Z,8.05
2024-02-23T18:05:58.384Z,8.05
2024-02-23T18:08:30.568Z,8.03
2024-02-23T18:11:06.110Z,8.02
2024-02-23T18:13:40.899Z,8.00
2024-02-23T18:16:15.134Z,8.02
2024-02-23T18:18:47.795Z,8.02
2024-02-23T18:23:55.542Z,8.01
2024-02-23T18:26:27.720Z,8.03
2024-02-23T18:29:00.741Z,8.05
2024-02-23T18:31:33.156Z,8.05
2024-02-23T18:34:05.796Z,8.06
2024-02-23T18:36:38.098Z,8.08
2024-02-23T18:39:12.420Z,8.07
2024-02-23T18:41:44.806Z,8.06
2024-02-23T18:44:18.230Z,8.07
2024-02-23T18:46:51.292Z,8.08
2024-02-23T18:49:23.550Z,8.08
2024-02-23T18:51:55.753Z,8.07
2024-02-23T18:54:28.229Z,8.04
2024-02-23T18:57:00.661Z,8.03
2024-02-23T18:59:33.092Z,8.03
2024-02-23T19:02:05.639Z,8.00
2024-02-23T19:04:37.850Z,8.01
2024-02-23T19:07:10.026Z,8.00
2024-02-23T19:09:42.911Z,8.01
2024-02-23T19:12:16.243Z,8.04
2024-02-23T19:14:48.947Z,8.04
2024-02-23T19:17:24.336Z,8.04
2024-02-23T19:19:56.972Z,8.05
2024-02-23T19:22:29.602Z,8.06
2024-02-23T19:25:01.885Z,8.04
2024-02-23T19:27:37.305Z,8.01
2024-02-23T19:30:13.712Z,8.00
2024-02-23T19:32:46.191Z,8.01
2024-02-23T19:35:20.052Z,8.01
2024-02-23T19:37:52.165Z,8.00
2024-02-23T19:40:26.260Z,8.00
2024-02-23T19:42:58.553Z,7.99
2024-02-23T19:45:31.885Z,7.99
2024-02-23T19:48:04.184Z,7.97
2024-02-23T19:50:37.240Z,7.95
2024-02-23T19:53:11.492Z,7.94
2024-02-23T19:55:45.839Z,7.92
2024-02-23T19:58:19.564Z,7.90
2024-02-23T20:00:51.907Z,7.88
2024-02-23T20:03:24.288Z,7.84
2024-02-23T20:06:06.933Z,7.83
2024-02-23T20:08:40.639Z,7.83
2024-02-23T20:11:13.354Z,7.84
2024-02-23T20:13:47.888Z,7.81
2024-02-23T20:16:20.126Z,7.81
2024-02-23T20:18:52.553Z,7.80
2024-02-23T20:21:25.336Z,7.78
2024-02-23T20:24:00.495Z,7.78
2024-02-23T20:26:33.129Z,7.78
2024-02-23T20:29:08.782Z,7.77
2024-02-23T20:31:45.491Z,7.77
2024-02-23T20:34:18.791Z,7.77
2024-02-23T20:36:51.488Z,7.78
2024-02-23T20:39:25.898Z,7.78
2024-02-23T20:41:58.171Z,7.78
2024-02-23T20:44:30.956Z,7.77
2024-02-23T20:47:03.594Z,7.75
2024-02-23T20:49:36.404Z,7.76
2024-02-23T20:52:11.360Z,7.77
2024-02-23T20:54:47.770Z,7.78
2024-02-23T20:57:20.606Z,7.78
2024-02-23T20:59:53.210Z,7.77
2024-02-23T21:02:25.563Z,7.78
2024-02-23T21:04:58.237Z,7.76
2024-02-23T21:07:30.578Z,7.76
2024-02-23T21:10:03.641Z,7.75
2024-02-23T21:12:39.156Z,7.78
2024-02-23T21:15:12.548Z,7.77
2024-02-23T21:17:44.998Z,7.77
2024-02-23T21:20:18.651Z,7.77
2024-02-23T21:22:51.001Z,7.74
2024-02-23T21:25:23.277Z,7.72
2024-02-23T21:27:55.916Z,7.71
2024-02-23T21:30:28.353Z,7.69
2024-02-23T21:33:00.839Z,7.69
2024-02-23T21:35:35.731Z,7.67
2024-02-23T21:38:09.653Z,7.67
2024-02-23T21:40:42.040Z,7.68
2024-02-23T21:43:14.284Z,7.66
2024-02-23T21:45:46.540Z,7.66
2024-02-23T21:48:18.792Z,7.66
2024-02-23T21:50:51.373Z,7.67
2024-02-23T21:53:23.731Z,7.66
2024-02-23T21:55:56.511Z,7.67
2024-02-23T21:58:28.761Z,7.66
2024-02-23T22:01:01.366Z,7.64
2024-02-23T22:03:34.114Z,7.62
2024-02-23T22:06:07.428Z,7.62
2024-02-23T22:08:40.052Z,7.62
2024-02-23T22:11:12.357Z,7.61
2024-02-23T22:13:48.720Z,7.62
2024-02-23T22:16:20.924Z,7.60
2024-02-23T22:18:52.999Z,7.59
2024-02-23T22:21:25.356Z,7.58
2024-02-23T22:23:58.011Z,7.58
2024-02-23T22:26:33.679Z,7.59
2024-02-23T22:29:05.995Z,7.56
2024-02-23T22:31:38.363Z,7.56
2024-02-23T22:34:10.568Z,7.56
2024-02-23T22:36:43.984Z,7.56
2024-02-23T22:39:16.126Z,7.56
2024-02-23T22:41:48.484Z,7.59
2024-02-23T22:44:20.829Z,7.61
2024-02-23T22:46:55.792Z,7.59
2024-02-23T22:49:28.171Z,7.60
2024-02-23T22:52:00.375Z,7.63
2024-02-23T22:54:32.501Z,7.63
2024-02-23T22:57:05.076Z,7.66
2024-02-23T22:59:37.170Z,7.67
2024-02-23T23:02:09.503Z,7.68
2024-02-23T23:04:41.783Z,7.71
2024-02-23T23:07:14.059Z,7.74
2024-02-23T23:09:46.559Z,7.75
2024-02-23T23:12:18.831Z,7.74
2024-02-23T23:14:51.004Z,7.74
2024-02-23T23:17:23.204Z,7.73
2024-02-23T23:19:55.332Z,7.75
2024-02-23T23:22:27.744Z,7.74
2024-02-23T23:24:59.752Z,7.75
2024-02-23T23:27:32.026Z,7.76
2024-02-23T23:30:04.417Z,7.75
2024-02-23T23:32:36.782Z,7.74
2024-02-23T23:35:09.946Z,7.74
2024-02-23T23:37:42.846Z,7.72
2024-02-23T23:40:17.427Z,7.73
2024-02-23T23:42:49.635Z,7.74
2024-02-23T23:45:21.824Z,7.77
2024-02-23T23:47:54.142Z,7.79
2024-02-23T23:50:26.522Z,7.78
2024-02-23T23:52:58.693Z,7.79
2024-02-23T23:55:31.314Z,7.81
2024-02-23T23:58:04.359Z,7.81
